createdAt,value
2023-01-22T00:00:08.955Z,0.60
2023-01-22T00:02:41.467Z,0.50
2023-01-22T00:05:08.765Z,0.50
2023-01-22T00:07:35.445Z,0.40
2023-01-22T00:10:02.170Z,0.40
2023-01-22T00:12:28.908Z,0.50
2023-01-22T00:14:55.650Z,0.40
2023-01-22T00:17:22.385Z,0.50
2023-01-22T00:19:49.123Z,0.50
2023-01-22T00:22:16.166Z,0.40
2023-01-22T00:24:43.451Z,0.50
2023-01-22T00:27:10.475Z,0.50
2023-01-22T00:29:37.219Z,0.40
2023-01-22T00:32:04.130Z,0.50
2023-01-22T00:34:30.847Z,0.40
2023-01-22T00:36:57.976Z,0.40
2023-01-22T00:39:24.779Z,0.40
2023-01-22T00:41:51.942Z,0.30
2023-01-22T00:44:18.798Z,0.00
2023-01-22T00:46:45.573Z,0.00
2023-01-22T00:49:12.817Z,0.10
2023-01-22T00:51:39.847Z,0.10
2023-01-22T00:54:06.794Z,0.20
2023-01-22T00:56:33.713Z,0.00
2023-01-22T00:59:00.511Z,0.10
2023-01-22T01:01:27.338Z,0.20
2023-01-22T01:03:54.127Z,0.20
2023-01-22T01:06:22.017Z,0.00
2023-01-22T01:08:49.713Z,0.00
2023-01-22T01:11:22.364Z,0.00
2023-01-22T01:13:50.109Z,0.10
2023-01-22T01:16:26.596Z,0.10
2023-01-22T01:18:53.545Z,-0.10
2023-01-22T01:21:20.484Z,0.00
2023-01-22T01:23:48.336Z,0.00
2023-01-22T01:26:16.337Z,0.00
2023-01-22T01:28:45.195Z,0.00
2023-01-22T01:31:14.875Z,0.10
2023-01-22T01:33:42.815Z,0.10
2023-01-22T01:36:14.937Z,0.00
2023-01-22T01:38:41.709Z,0.00
2023-01-22T01:41:11.008Z,-0.20
2023-01-22T01:43:37.927Z,-0.20
2023-01-22T01:46:11.396Z,-0.10
2023-01-22T01:48:46.698Z,0.00
2023-01-22T01:51:22.049Z,0.00
2023-01-22T01:53:50.663Z,-0.10
2023-01-22T01:56:23.238Z,-0.20
2023-01-22T01:58:54.792Z,-0.10
2023-01-22T02:01:21.846Z,-0.10
2023-01-22T02:03:49.010Z,0.00
2023-01-22T02:06:17.574Z,-0.10
2023-01-22T02:08:48.077Z,0.00
2023-01-22T02:11:16.560Z,0.10
2023-01-22T02:13:52.592Z,0.10
2023-01-22T02:16:20.317Z,0.20
2023-01-22T02:18:48.283Z,0.20
2023-01-22T02:21:38.927Z,0.20
2023-01-22T02:24:09.094Z,0.30
2023-01-22T02:26:36.544Z,0.30
2023-01-22T02:29:04.631Z,0.40
2023-01-22T02:31:31.635Z,0.20
2023-01-22T02:33:59.224Z,0.20
2023-01-22T02:36:30.193Z,0.30
2023-01-22T02:38:57.411Z,0.40
2023-01-22T02:41:25.078Z,0.50
2023-01-22T02:43:52.443Z,0.40
2023-01-22T02:46:21.658Z,0.60
2023-01-22T02:48:49.701Z,0.60
2023-01-22T02:51:16.922Z,0.50
2023-01-22T02:53:45.457Z,0.60
2023-01-22T02:56:12.703Z,0.70
2023-01-22T02:58:39.918Z,0.70
2023-01-22T03:01:18.734Z,0.70
2023-01-22T03:03:56.664Z,0.80
2023-01-22T03:06:25.986Z,0.80
2023-01-22T03:08:57.934Z,0.90
2023-01-22T03:11:26.913Z,0.70
2023-01-22T03:14:13.738Z,0.70
2023-01-22T03:17:00.723Z,0.50
2023-01-22T03:19:46.438Z,0.40
2023-01-22T03:22:18.130Z,0.30
2023-01-22T03:24:51.183Z,0.20
2023-01-22T03:27:22.940Z,0.10
2023-01-22T03:29:50.159Z,0.20
2023-01-22T03:32:19.113Z,0.20
2023-01-22T03:34:45.854Z,0.20
2023-01-22T03:37:12.882Z,0.20
2023-01-22T03:39:41.918Z,0.20
2023-01-22T03:42:09.225Z,0.20
2023-01-22T03:44:36.157Z,0.10
2023-01-22T03:47:03.220Z,0.10
2023-01-22T03:49:29.990Z,0.20
2023-01-22T03:51:57.212Z,0.20
2023-01-22T03:54:25.572Z,0.30
2023-01-22T03:56:55.375Z,0.10
2023-01-22T03:59:28.059Z,0.10
2023-01-22T04:01:54.825Z,0.10
2023-01-22T04:04:21.874Z,0.10
2023-01-22T04:06:48.686Z,0.20
2023-01-22T04:09:16.977Z,0.10
2023-01-22T04:11:47.793Z,0.10
2023-01-22T04:14:16.176Z,0.20
2023-01-22T04:16:52.533Z,0.20
2023-01-22T04:19:28.102Z,0.30
2023-01-22T04:22:11.462Z,0.30
2023-01-22T04:24:38.318Z,0.40
2023-01-22T04:27:05.917Z,0.40
2023-01-22T04:29:32.765Z,0.50
2023-01-22T04:31:59.702Z,0.60
2023-01-22T04:34:48.722Z,0.60
2023-01-22T04:37:22.025Z,0.60
2023-01-22T04:39:48.845Z,0.50
2023-01-22T04:42:15.555Z,0.60
2023-01-22T04:44:42.348Z,0.50
2023-01-22T04:47:09.092Z,0.50
2023-01-22T04:49:37.738Z,0.60
2023-01-22T04:52:06.718Z,0.60
2023-01-22T04:54:33.503Z,0.70
2023-01-22T04:57:00.933Z,0.60
2023-01-22T04:59:27.631Z,0.40
2023-01-22T05:01:55.907Z,0.40
2023-01-22T05:04:23.777Z,0.50
2023-01-22T05:06:50.630Z,0.60
2023-01-22T05:09:17.658Z,0.60
2023-01-22T05:12:00.798Z,0.60
2023-01-22T05:14:32.443Z,0.60
2023-01-22T05:17:01.384Z,0.70
2023-01-22T05:19:28.068Z,0.70
2023-01-22T05:21:55.229Z,0.70
2023-01-22T05:24:21.865Z,0.80
2023-01-22T05:26:48.613Z,0.40
2023-01-22T05:29:27.011Z,0.50
2023-01-22T05:32:03.587Z,0.50
2023-01-22T05:34:33.390Z,0.30
2023-01-22T05:37:00.850Z,0.30
2023-01-22T05:39:30.042Z,0.40
2023-01-22T05:41:59.280Z,0.40
2023-01-22T05:44:26.215Z,0.20
2023-01-22T05:46:54.460Z,0.20
2023-01-22T05:49:32.782Z,0.30
2023-01-22T05:51:59.686Z,0.30
2023-01-22T05:54:26.600Z,0.30
2023-01-22T05:56:54.862Z,0.30
2023-01-22T05:59:23.019Z,0.30
2023-01-22T06:01:55.702Z,0.30
2023-01-22T06:04:22.424Z,0.10
2023-01-22T06:06:49.471Z,0.20
2023-01-22T06:09:16.546Z,0.30
2023-01-22T06:11:44.025Z,0.40
2023-01-22T06:14:11.047Z,0.40
2023-01-22T06:16:37.865Z,0.40
2023-01-22T06:19:12.673Z,0.30
2023-01-22T06:21:44.043Z,0.30
2023-01-22T06:24:11.611Z,0.40
2023-01-22T06:26:38.591Z,0.30
2023-01-22T06:29:07.775Z,0.30
2023-01-22T06:31:35.104Z,0.30
2023-01-22T06:34:05.859Z,0.40
2023-01-22T06:36:32.818Z,0.20
2023-01-22T06:38:59.600Z,0.30
2023-01-22T06:41:38.030Z,0.30
2023-01-22T06:44:07.239Z,0.30
2023-01-22T06:46:34.095Z,0.40
2023-01-22T06:49:06.833Z,0.30
2023-01-22T06:51:33.661Z,0.30
2023-01-22T06:54:00.413Z,0.30
2023-01-22T06:56:28.185Z,0.20
2023-01-22T06:58:56.573Z,0.20
2023-01-22T07:01:23.334Z,0.30
2023-01-22T07:03:50.131Z,0.40
2023-01-22T07:06:18.748Z,0.20
2023-01-22T07:08:45.790Z,0.20
2023-01-22T07:11:14.391Z,0.30
2023-01-22T07:13:44.619Z,0.50
2023-01-22T07:16:11.645Z,0.50
2023-01-22T07:18:38.446Z,0.70
2023-01-22T07:21:06.160Z,0.70
2023-01-22T07:23:33.443Z,0.80
2023-01-22T07:26:00.260Z,0.90
2023-01-22T07:28:27.089Z,0.90
2023-01-22T07:30:54.028Z,1.00
2023-01-22T07:33:20.863Z,1.00
2023-01-22T07:35:55.511Z,0.90
2023-01-22T07:38:23.168Z,0.70
2023-01-22T07:40:50.492Z,0.80
2023-01-22T07:43:17.769Z,0.80
2023-01-22T07:45:44.769Z,0.80
2023-01-22T07:48:12.064Z,0.80
2023-01-22T07:50:40.164Z,0.90
2023-01-22T07:53:08.381Z,0.90
2023-01-22T07:55:35.142Z,0.90
2023-01-22T07:58:04.449Z,0.80
2023-01-22T08:00:34.653Z,0.60
2023-01-22T08:03:03.867Z,0.70
2023-01-22T08:05:30.803Z,0.90
2023-01-22T08:07:57.953Z,0.90
2023-01-22T08:10:24.752Z,0.60
2023-01-22T08:12:51.461Z,0.80
2023-01-22T08:15:18.247Z,0.70
2023-01-22T08:17:47.776Z,0.70
2023-01-22T08:20:16.029Z,0.70
2023-01-22T08:22:43.938Z,0.60
2023-01-22T08:25:10.714Z,0.80
2023-01-22T08:27:37.619Z,0.80
2023-01-22T08:30:05.477Z,0.80
2023-01-22T08:32:32.267Z,1.00
2023-01-22T08:34:59.092Z,1.00
2023-01-22T08:37:25.893Z,1.10
2023-01-22T08:39:52.586Z,1.00
2023-01-22T08:42:19.398Z,0.60
2023-01-22T08:44:46.123Z,0.70
2023-01-22T08:47:12.957Z,0.90
2023-01-22T08:49:39.657Z,1.10
2023-01-22T08:52:06.944Z,1.10
2023-01-22T08:54:34.039Z,0.90
2023-01-22T08:57:00.790Z,0.80
2023-01-22T08:59:29.348Z,0.90
2023-01-22T09:02:02.061Z,0.80
2023-01-22T09:04:29.010Z,0.90
2023-01-22T09:06:55.791Z,0.90
2023-01-22T09:09:22.706Z,0.90
2023-01-22T09:11:49.750Z,0.90
2023-01-22T09:14:16.569Z,0.90
2023-01-22T09:16:43.420Z,0.90
2023-01-22T09:19:11.061Z,0.80
2023-01-22T09:21:38.058Z,0.80
2023-01-22T09:24:05.815Z,0.90
2023-01-22T09:26:32.896Z,1.00
2023-01-22T09:29:01.078Z,1.10
2023-01-22T09:31:28.492Z,1.20
2023-01-22T09:33:55.629Z,1.40
2023-01-22T09:36:22.803Z,1.40
2023-01-22T09:38:49.548Z,1.50
2023-01-22T09:41:36.158Z,1.70
2023-01-22T09:44:24.942Z,1.50
2023-01-22T09:47:00.089Z,1.50
2023-01-22T09:49:37.159Z,1.30
2023-01-22T09:52:05.452Z,1.20
2023-01-22T09:54:33.405Z,1.20
2023-01-22T09:57:04.769Z,1.20
2023-01-22T09:59:56.588Z,1.40
2023-01-22T10:02:32.164Z,1.40
2023-01-22T10:05:14.241Z,1.40
2023-01-22T10:07:46.872Z,1.60
2023-01-22T10:10:28.185Z,1.50
2023-01-22T10:13:07.750Z,1.50
2023-01-22T10:15:34.512Z,1.50
2023-01-22T10:18:04.807Z,1.50
2023-01-22T10:20:32.908Z,1.60
2023-01-22T10:23:08.711Z,1.40
2023-01-22T10:25:35.447Z,1.30
2023-01-22T10:28:04.107Z,1.30
2023-01-22T10:30:31.004Z,1.40
2023-01-22T10:33:06.636Z,1.50
2023-01-22T10:35:43.932Z,1.50
2023-01-22T10:38:25.066Z,1.50
2023-01-22T10:41:00.765Z,1.50
2023-01-22T10:43:32.774Z,1.60
2023-01-22T10:46:23.978Z,1.60
2023-01-22T10:49:02.147Z,1.70
2023-01-22T10:51:42.027Z,1.80
2023-01-22T10:54:39.205Z,1.50
2023-01-22T10:57:26.867Z,1.20
2023-01-22T11:00:15.579Z,1.10
2023-01-22T11:02:44.808Z,1.50
2023-01-22T11:05:21.900Z,1.70
2023-01-22T11:07:52.486Z,1.50
2023-01-22T11:10:27.264Z,1.50
2023-01-22T11:13:11.917Z,1.50
2023-01-22T11:15:46.086Z,1.90
2023-01-22T11:18:28.747Z,1.80
2023-01-22T11:20:58.250Z,1.90
2023-01-22T11:24:05.534Z,1.90
2023-01-22T11:26:38.215Z,2.10
2023-01-22T11:29:29.225Z,2.10
2023-01-22T11:32:14.104Z,2.20
2023-01-22T11:34:59.439Z,2.30
2023-01-22T11:37:41.255Z,2.40
2023-01-22T11:40:23.972Z,2.50
2023-01-22T11:43:01.782Z,2.50
2023-01-22T11:46:11.918Z,2.50
2023-01-22T11:48:54.334Z,2.50
2023-01-22T11:51:36.619Z,2.50
2023-01-22T11:54:12.894Z,2.30
2023-01-22T11:57:02.158Z,2.30
2023-01-22T11:59:57.821Z,2.20
2023-01-22T12:02:34.927Z,2.30
2023-01-22T12:05:32.213Z,2.40
2023-01-22T12:08:12.854Z,2.50
2023-01-22T12:11:01.086Z,2.60
2023-01-22T12:13:46.202Z,2.60
2023-01-22T12:16:38.042Z,2.70
2023-01-22T12:19:16.648Z,2.80
2023-01-22T12:22:09.259Z,2.80
2023-01-22T12:24:48.316Z,2.80
2023-01-22T12:27:24.270Z,2.90
2023-01-22T12:30:21.660Z,2.80
2023-01-22T12:32:58.095Z,2.40
2023-01-22T12:35:28.070Z,2.60
2023-01-22T12:38:16.364Z,2.70
2023-01-22T12:40:56.711Z,2.70
2023-01-22T12:43:41.222Z,2.50
2023-01-22T12:46:21.658Z,2.40
2023-01-22T12:49:07.967Z,2.40
2023-01-22T12:51:39.521Z,2.30
2023-01-22T12:54:18.636Z,2.20
2023-01-22T12:56:46.014Z,2.20
2023-01-22T12:59:32.617Z,2.20
2023-01-22T13:02:02.135Z,2.10
2023-01-22T13:04:31.624Z,2.10
2023-01-22T13:07:23.294Z,2.20
2023-01-22T13:10:01.712Z,2.30
2023-01-22T13:12:38.572Z,2.30
2023-01-22T13:15:06.682Z,2.30
2023-01-22T13:17:34.478Z,2.30
2023-01-22T13:20:01.628Z,2.40
2023-01-22T13:22:29.149Z,2.30
2023-01-22T13:24:57.824Z,2.40
2023-01-22T13:27:33.894Z,2.30
2023-01-22T13:30:37.648Z,2.50
2023-01-22T13:33:15.905Z,2.60
2023-01-22T13:35:44.973Z,2.70
2023-01-22T13:38:26.217Z,2.60
2023-01-22T13:41:04.796Z,2.40
2023-01-22T13:43:33.629Z,2.40
2023-01-22T13:46:01.088Z,2.60
2023-01-22T13:48:28.025Z,2.60
2023-01-22T13:51:06.369Z,2.50
2023-01-22T13:53:42.447Z,2.50
2023-01-22T13:56:17.234Z,2.50
2023-01-22T13:58:48.811Z,2.50
2023-01-22T14:01:36.157Z,2.50
2023-01-22T14:04:08.025Z,2.50
2023-01-22T14:06:47.274Z,2.50
2023-01-22T14:09:25.668Z,2.50
2023-01-22T14:11:52.447Z,2.40
2023-01-22T14:14:20.069Z,2.10
2023-01-22T14:16:47.372Z,2.30
2023-01-22T14:19:14.483Z,2.40
2023-01-22T14:21:41.769Z,2.40
2023-01-22T14:24:08.757Z,2.40
2023-01-22T14:26:35.864Z,2.50
2023-01-22T14:29:02.768Z,2.40
2023-01-22T14:31:29.572Z,2.50
2023-01-22T14:33:56.276Z,2.20
2023-01-22T14:36:23.073Z,2.30
2023-01-22T14:38:51.384Z,2.40
2023-01-22T14:41:18.097Z,2.20
2023-01-22T14:43:44.834Z,2.20
2023-01-22T14:46:11.619Z,2.10
2023-01-22T14:48:38.736Z,2.20
2023-01-22T14:51:10.333Z,2.30
2023-01-22T14:53:37.839Z,2.40
2023-01-22T14:56:05.617Z,2.30
2023-01-22T14:58:32.304Z,2.40
2023-01-22T15:00:59.077Z,2.50
2023-01-22T15:03:29.165Z,2.20
2023-01-22T15:05:55.926Z,2.30
2023-01-22T15:08:22.772Z,2.20
2023-01-22T15:10:49.435Z,2.30
2023-01-22T15:13:16.110Z,2.20
2023-01-22T15:15:43.009Z,2.00
2023-01-22T15:18:09.764Z,1.80
2023-01-22T15:20:36.576Z,1.70
2023-01-22T15:23:03.310Z,1.70
2023-01-22T15:25:32.133Z,1.70
2023-01-22T15:27:58.948Z,1.70
2023-01-22T15:30:26.028Z,1.80
2023-01-22T15:32:52.750Z,1.80
2023-01-22T15:35:19.473Z,1.80
2023-01-22T15:37:47.533Z,1.70
2023-01-22T15:40:14.793Z,1.80
2023-01-22T15:42:41.513Z,1.90
2023-01-22T15:45:08.804Z,1.90
2023-01-22T15:47:35.524Z,1.80
2023-01-22T15:50:02.215Z,1.70
2023-01-22T15:52:28.903Z,1.60
2023-01-22T15:54:55.853Z,1.60
2023-01-22T15:57:22.587Z,1.60
2023-01-22T15:59:49.334Z,1.70
2023-01-22T16:02:16.524Z,1.70
2023-01-22T16:04:43.339Z,1.70
2023-01-22T16:07:10.049Z,1.80
2023-01-22T16:09:36.898Z,1.80
2023-01-22T16:12:03.905Z,1.90
2023-01-22T16:14:31.658Z,1.80
2023-01-22T16:16:58.420Z,1.90
2023-01-22T16:19:25.126Z,1.70
2023-01-22T16:21:53.330Z,1.70
2023-01-22T16:24:20.001Z,1.60
2023-01-22T16:26:46.735Z,1.70
2023-01-22T16:29:13.429Z,1.80
2023-01-22T16:31:40.175Z,1.80
2023-01-22T16:34:13.772Z,1.90
2023-01-22T16:36:41.486Z,1.70
2023-01-22T16:39:09.968Z,1.70
2023-01-22T16:41:37.828Z,1.80
2023-01-22T16:44:19.141Z,1.90
2023-01-22T16:46:49.436Z,2.00
2023-01-22T16:49:17.848Z,2.00
2023-01-22T16:51:53.046Z,2.00
2023-01-22T16:54:31.257Z,2.00
2023-01-22T16:57:03.650Z,1.90
2023-01-22T16:59:32.319Z,1.70
2023-01-22T17:02:01.301Z,1.70
2023-01-22T17:04:28.389Z,1.80
2023-01-22T17:06:57.461Z,1.70
2023-01-22T17:09:26.686Z,1.80
2023-01-22T17:11:55.899Z,1.80
2023-01-22T17:14:25.149Z,1.80
2023-01-22T17:16:52.453Z,1.80
2023-01-22T17:19:19.815Z,1.90
2023-01-22T17:21:48.945Z,1.80
2023-01-22T17:24:15.742Z,1.70
2023-01-22T17:26:42.535Z,1.70
2023-01-22T17:29:10.242Z,1.70
2023-01-22T17:31:37.749Z,1.40
2023-01-22T17:34:08.455Z,1.40
2023-01-22T17:36:35.467Z,1.40
2023-01-22T17:39:03.560Z,1.30
2023-01-22T17:41:30.647Z,1.30
2023-01-22T17:43:58.620Z,1.40
2023-01-22T17:46:29.100Z,1.40
2023-01-22T17:48:56.300Z,1.30
2023-01-22T17:51:28.554Z,1.30
2023-01-22T17:53:56.836Z,1.20
2023-01-22T17:56:26.639Z,1.20
2023-01-22T17:58:59.313Z,1.30
2023-01-22T18:01:30.271Z,1.30
2023-01-22T18:03:58.861Z,1.30
2023-01-22T18:06:25.798Z,1.30
2023-01-22T18:08:52.748Z,1.40
2023-01-22T18:11:22.887Z,1.40
2023-01-22T18:13:50.116Z,1.40
2023-01-22T18:16:18.584Z,1.30
2023-01-22T18:18:45.935Z,1.30
2023-01-22T18:21:16.234Z,1.40
2023-01-22T18:23:44.137Z,1.50
2023-01-22T18:26:11.755Z,1.50
2023-01-22T18:28:38.950Z,1.50
2023-01-22T18:31:11.999Z,1.40
2023-01-22T18:33:39.662Z,1.40
2023-01-22T18:36:12.166Z,1.40
2023-01-22T18:38:39.643Z,1.40
2023-01-22T18:41:07.263Z,1.30
2023-01-22T18:43:34.121Z,1.40
2023-01-22T18:46:05.997Z,1.30
2023-01-22T18:48:32.935Z,1.20
2023-01-22T18:50:59.695Z,1.30
2023-01-22T18:53:26.551Z,1.50
2023-01-22T18:55:53.587Z,1.20
2023-01-22T18:58:35.823Z,1.20
2023-01-22T19:01:13.238Z,1.20
2023-01-22T19:03:41.441Z,1.20
2023-01-22T19:06:16.159Z,1.30
2023-01-22T19:08:44.056Z,1.40
2023-01-22T19:11:13.186Z,1.40
2023-01-22T19:13:40.790Z,1.40
2023-01-22T19:16:10.937Z,1.40
2023-01-22T19:18:42.137Z,1.30
2023-01-22T19:21:12.168Z,1.30
2023-01-22T19:23:38.944Z,1.20
2023-01-22T19:26:13.081Z,1.10
2023-01-22T19:28:40.314Z,1.10
2023-01-22T19:31:18.625Z,1.10
2023-01-22T19:33:46.448Z,1.20
2023-01-22T19:36:13.268Z,1.40
2023-01-22T19:38:40.451Z,1.40
2023-01-22T19:41:08.663Z,1.50
2023-01-22T19:43:35.794Z,1.40
2023-01-22T19:46:05.047Z,1.40
2023-01-22T19:48:31.776Z,1.50
2023-01-22T19:51:00.267Z,1.40
2023-01-22T19:53:27.463Z,1.50
2023-01-22T19:55:54.252Z,1.60
2023-01-22T19:58:21.249Z,1.60
2023-01-22T20:00:48.029Z,1.70
2023-01-22T20:03:15.443Z,1.70
2023-01-22T20:05:44.501Z,1.60
2023-01-22T20:08:11.584Z,1.70
2023-01-22T20:10:38.377Z,1.70
2023-01-22T20:13:05.832Z,1.70
2023-01-22T20:15:38.078Z,1.70
2023-01-22T20:18:06.015Z,1.60
2023-01-22T20:20:33.234Z,1.60
2023-01-22T20:22:59.976Z,1.60
2023-01-22T20:25:27.969Z,1.50
2023-01-22T20:27:54.671Z,1.60
2023-01-22T20:30:21.410Z,1.70
2023-01-22T20:32:48.147Z,1.70
2023-01-22T20:35:16.122Z,1.60
2023-01-22T20:37:42.901Z,1.60
2023-01-22T20:40:11.861Z,1.70
2023-01-22T20:42:39.418Z,1.80
2023-01-22T20:45:06.818Z,1.80
2023-01-22T20:47:34.838Z,1.80
2023-01-22T20:50:02.290Z,1.40
2023-01-22T20:52:29.235Z,1.60
2023-01-22T20:55:01.886Z,1.60
2023-01-22T20:57:30.096Z,1.70
2023-01-22T20:59:57.039Z,1.70
2023-01-22T21:02:23.804Z,1.70
2023-01-22T21:04:52.620Z,1.80
2023-01-22T21:07:20.116Z,1.90
2023-01-22T21:09:46.891Z,2.00
2023-01-22T21:12:13.924Z,2.00
2023-01-22T21:14:40.899Z,2.00
2023-01-22T21:17:07.958Z,2.00
2023-01-22T21:19:34.942Z,2.10
2023-01-22T21:22:03.819Z,2.10
2023-01-22T21:24:31.117Z,2.20
2023-01-22T21:26:58.183Z,2.20
2023-01-22T21:29:24.884Z,2.20
2023-01-22T21:31:53.928Z,2.30
2023-01-22T21:34:24.272Z,2.20
2023-01-22T21:36:53.621Z,2.20
2023-01-22T21:39:24.544Z,2.20
2023-01-22T21:41:52.060Z,2.20
2023-01-22T21:44:38.064Z,2.20
2023-01-22T21:47:05.584Z,2.20
2023-01-22T21:49:34.802Z,2.20
2023-01-22T21:52:09.378Z,2.10
2023-01-22T21:54:43.207Z,2.00
2023-01-22T21:57:15.363Z,1.90
2023-01-22T21:59:43.039Z,2.00
2023-01-22T22:02:15.201Z,1.90
2023-01-22T22:04:41.993Z,1.90
2023-01-22T22:07:08.636Z,1.90
2023-01-22T22:09:35.325Z,1.90
2023-01-22T22:12:02.819Z,1.90
2023-01-22T22:14:30.048Z,2.00
2023-01-22T22:16:57.199Z,2.00
2023-01-22T22:19:24.947Z,2.10
2023-01-22T22:21:51.713Z,2.20
2023-01-22T22:24:19.601Z,2.10
2023-01-22T22:26:46.569Z,2.10
2023-01-22T22:29:13.299Z,2.10
2023-01-22T22:31:40.057Z,2.10
2023-01-22T22:34:06.973Z,2.10
2023-01-22T22:36:33.853Z,2.10
2023-01-22T22:39:01.789Z,2.10
2023-01-22T22:41:31.159Z,2.10
2023-01-22T22:43:58.857Z,2.10
2023-01-22T22:46:28.528Z,2.20
2023-01-22T22:48:56.875Z,2.20
2023-01-22T22:51:26.859Z,2.20
2023-01-22T22:53:56.796Z,2.30
2023-01-22T22:56:23.810Z,1.90
2023-01-22T22:58:51.261Z,1.90
2023-01-22T23:01:20.469Z,1.90
2023-01-22T23:03:47.655Z,2.00
2023-01-22T23:06:23.912Z,1.90
2023-01-22T23:08:53.093Z,1.90
2023-01-22T23:11:25.429Z,2.00
2023-01-22T23:13:52.754Z,2.00
2023-01-22T23:16:22.285Z,2.00
2023-01-22T23:18:51.340Z,2.00
2023-01-22T23:21:21.313Z,1.80
2023-01-22T23:23:48.280Z,1.80
2023-01-22T23:26:17.687Z,1.80
2023-01-22T23:28:44.516Z,1.80
2023-01-22T23:31:13.639Z,1.90
2023-01-22T23:33:41.169Z,1.90
2023-01-22T23:36:11.419Z,2.00
2023-01-22T23:38:39.162Z,2.00
2023-01-22T23:41:08.122Z,2.10
2023-01-22T23:43:35.005Z,2.00
2023-01-22T23:46:06.515Z,2.10
2023-01-22T23:48:33.158Z,2.00
2023-01-22T23:51:00.621Z,2.00
2023-01-22T23:53:27.481Z,2.10
2023-01-22T23:56:01.834Z,2.10
2023-01-22T23:58:29.056Z,2.10
